createdAt,value
2017-12-04T00:01:08.359Z,10.07
2017-12-04T00:03:36.107Z,10.53
2017-12-04T00:06:03.826Z,10.93
2017-12-04T00:08:31.566Z,10.10
2017-12-04T00:10:59.280Z,10.37
2017-12-04T00:13:27.014Z,11.10
2017-12-04T00:15:54.705Z,11.00
2017-12-04T00:18:22.524Z,11.13
2017-12-04T00:20:50.152Z,10.80
2017-12-04T00:23:17.893Z,9.70
2017-12-04T00:25:45.613Z,11.00
2017-12-04T00:28:13.367Z,8.37
2017-12-04T00:30:41.088Z,7.77
2017-12-04T00:33:08.769Z,9.07
2017-12-04T00:35:36.464Z,9.17
2017-12-04T00:38:04.143Z,3.43
2017-12-04T00:40:31.820Z,8.17
2017-12-04T00:42:59.461Z,7.10
2017-12-04T00:45:27.200Z,7.30
2017-12-04T00:47:54.894Z,6.57
2017-12-04T00:50:22.608Z,6.60
2017-12-04T00:52:50.296Z,6.53
2017-12-04T00:55:18.063Z,4.90
2017-12-04T00:57:45.768Z,7.03
2017-12-04T01:00:13.507Z,5.57
2017-12-04T01:02:41.196Z,4.80
2017-12-04T01:05:08.930Z,5.30
2017-12-04T01:07:36.668Z,5.20
2017-12-04T01:10:04.400Z,5.50
2017-12-04T01:12:32.033Z,4.47
2017-12-04T01:14:59.723Z,4.30
2017-12-04T01:17:27.418Z,3.43
2017-12-04T01:19:55.145Z,3.37
2017-12-04T01:22:22.824Z,3.23
2017-12-04T01:24:50.554Z,3.10
2017-12-04T01:27:18.188Z,3.37
2017-12-04T01:29:45.909Z,3.00
2017-12-04T01:32:13.646Z,2.43
2017-12-04T01:34:41.378Z,2.40
2017-12-04T01:37:09.061Z,2.67
2017-12-04T01:39:36.809Z,2.90
2017-12-04T01:42:04.437Z,2.40
2017-12-04T01:44:32.160Z,1.77
2017-12-04T01:46:59.861Z,2.17
2017-12-04T01:49:27.607Z,1.70
2017-12-04T01:51:55.325Z,1.90
2017-12-04T01:54:23.088Z,2.00
2017-12-04T01:56:50.720Z,1.93
2017-12-04T01:59:18.377Z,2.10
2017-12-04T02:01:46.060Z,1.53
2017-12-04T02:04:13.822Z,1.97
2017-12-04T02:06:41.506Z,2.10
2017-12-04T02:09:09.244Z,2.37
2017-12-04T02:11:36.927Z,1.70
2017-12-04T02:14:04.645Z,1.53
2017-12-04T02:16:32.318Z,1.70
2017-12-04T02:19:00.054Z,1.40
2017-12-04T02:21:27.741Z,2.10
2017-12-04T02:23:55.887Z,2.10
2017-12-04T02:26:23.599Z,1.80
2017-12-04T02:28:51.292Z,1.60
2017-12-04T02:31:19.088Z,1.70
2017-12-04T02:33:46.727Z,1.67
2017-12-04T02:36:14.488Z,2.13
2017-12-04T02:38:42.131Z,1.90
2017-12-04T02:41:09.917Z,1.73
2017-12-04T02:43:37.640Z,1.50
2017-12-04T02:46:05.386Z,1.50
2017-12-04T02:48:33.029Z,1.67
2017-12-04T02:51:00.785Z,1.43
2017-12-04T02:53:28.444Z,1.50
2017-12-04T02:55:56.259Z,2.30
2017-12-04T02:58:23.986Z,1.63
2017-12-04T03:00:51.725Z,2.60
2017-12-04T03:03:19.406Z,1.60
2017-12-04T03:05:47.147Z,1.83
2017-12-04T03:08:14.757Z,2.30
2017-12-04T03:10:42.428Z,1.70
2017-12-04T03:13:10.118Z,1.87
2017-12-04T03:15:37.789Z,1.50
2017-12-04T03:18:05.467Z,1.90
2017-12-04T03:20:33.224Z,1.50
2017-12-04T03:23:00.913Z,1.27
2017-12-04T03:25:28.651Z,1.53
2017-12-04T03:27:56.344Z,2.07
2017-12-04T03:30:24.137Z,1.00
2017-12-04T03:32:51.848Z,1.23
2017-12-04T03:35:19.592Z,2.20
2017-12-04T03:37:47.284Z,1.37
2017-12-04T03:40:15.035Z,1.33
2017-12-04T03:42:42.656Z,1.00
2017-12-04T03:45:10.406Z,0.97
2017-12-04T03:47:38.080Z,1.60
2017-12-04T03:50:05.745Z,1.63
2017-12-04T03:52:33.433Z,1.47
2017-12-04T03:55:01.108Z,2.40
2017-12-04T03:57:28.790Z,1.20
2017-12-04T03:59:56.508Z,1.30
2017-12-04T04:02:24.121Z,1.67
2017-12-04T04:04:51.776Z,1.73
2017-12-04T04:07:19.397Z,1.63
2017-12-04T04:09:47.121Z,1.50
2017-12-04T04:12:14.795Z,1.53
2017-12-04T04:14:42.523Z,1.73
2017-12-04T04:17:10.207Z,1.67
2017-12-04T04:19:37.937Z,1.80
2017-12-04T04:22:05.556Z,1.60
2017-12-04T04:24:33.245Z,1.73
2017-12-04T04:27:00.985Z,1.30
2017-12-04T04:29:28.667Z,1.70
2017-12-04T04:31:56.449Z,1.50
2017-12-04T04:34:24.125Z,2.50
2017-12-04T04:36:51.856Z,1.23
2017-12-04T04:39:19.469Z,1.13
2017-12-04T04:41:47.210Z,1.37
2017-12-04T04:44:15.821Z,1.87
2017-12-04T04:46:43.548Z,1.10
2017-12-04T04:49:11.245Z,1.37
2017-12-04T04:51:39.016Z,1.20
2017-12-04T04:54:06.736Z,1.53
2017-12-04T04:56:34.466Z,1.10
2017-12-04T04:59:02.178Z,2.07
2017-12-04T05:01:29.926Z,1.50
2017-12-04T05:03:57.553Z,1.43
2017-12-04T05:06:25.302Z,1.23
2017-12-04T05:08:53.000Z,1.40
2017-12-04T05:11:20.737Z,1.50
2017-12-04T05:13:48.368Z,1.60
2017-12-04T05:16:16.120Z,2.50
2017-12-04T05:18:43.846Z,1.87
2017-12-04T05:21:11.634Z,1.30
2017-12-04T05:23:39.368Z,1.90
2017-12-04T05:26:07.143Z,1.30
2017-12-04T05:28:34.821Z,1.60
2017-12-04T05:31:02.664Z,1.57
2017-12-04T05:33:30.351Z,1.30
2017-12-04T05:35:58.129Z,1.50
2017-12-04T05:38:25.868Z,1.50
2017-12-04T05:40:53.606Z,1.40
2017-12-04T05:43:21.309Z,0.97
2017-12-04T05:45:49.104Z,2.17
2017-12-04T05:48:16.795Z,1.43
2017-12-04T05:50:44.523Z,1.40
2017-12-04T05:53:12.218Z,1.40
2017-12-04T05:55:39.959Z,1.40
2017-12-04T05:58:07.674Z,2.77
2017-12-04T06:00:35.445Z,1.40
2017-12-04T06:03:03.168Z,1.40
2017-12-04T06:05:30.920Z,1.67
2017-12-04T06:07:58.595Z,1.63
2017-12-04T06:10:26.348Z,2.00
2017-12-04T06:12:54.049Z,1.40
2017-12-04T06:15:21.779Z,1.47
2017-12-04T06:17:49.454Z,1.23
2017-12-04T06:20:17.086Z,1.00
2017-12-04T06:22:44.836Z,1.33
2017-12-04T06:25:12.511Z,2.10
2017-12-04T06:27:40.231Z,0.73
2017-12-04T06:30:07.928Z,1.23
2017-12-04T06:32:35.746Z,1.43
2017-12-04T06:35:03.378Z,1.27
2017-12-04T06:37:31.115Z,1.23
2017-12-04T06:39:58.784Z,1.40
2017-12-04T06:42:26.519Z,1.27
2017-12-04T06:44:54.197Z,1.10
2017-12-04T06:47:21.895Z,1.03
2017-12-04T06:49:49.585Z,1.20
2017-12-04T06:52:17.361Z,0.70
2017-12-04T06:54:44.981Z,1.10
2017-12-04T06:57:12.647Z,0.97
2017-12-04T06:59:40.333Z,1.20
2017-12-04T07:02:08.058Z,1.53
2017-12-04T07:04:35.676Z,1.00
2017-12-04T07:07:03.343Z,1.10
2017-12-04T07:09:31.053Z,1.27
2017-12-04T07:11:58.777Z,1.40
2017-12-04T07:14:26.401Z,0.93
2017-12-04T07:16:54.172Z,1.83
2017-12-04T07:19:21.876Z,1.27
2017-12-04T07:21:49.711Z,1.40
2017-12-04T07:24:17.347Z,1.10
2017-12-04T07:26:45.020Z,0.77
2017-12-04T07:29:12.716Z,0.90
2017-12-04T07:31:40.484Z,0.97
2017-12-04T07:34:08.173Z,0.90
2017-12-04T07:36:35.913Z,1.30
2017-12-04T07:39:03.635Z,1.30
2017-12-04T07:41:31.384Z,0.90
2017-12-04T07:43:59.073Z,1.83
2017-12-04T07:46:26.803Z,1.33
2017-12-04T07:48:54.504Z,1.20
2017-12-04T07:51:22.244Z,1.17
2017-12-04T07:53:49.936Z,1.23
2017-12-04T07:56:17.702Z,5.50
2017-12-04T07:58:45.359Z,1.80
2017-12-04T08:01:13.108Z,1.53
2017-12-04T08:03:40.878Z,1.90
2017-12-04T08:06:08.630Z,1.23
2017-12-04T08:08:36.313Z,1.30
2017-12-04T08:11:04.024Z,1.77
2017-12-04T08:13:31.765Z,1.50
2017-12-04T08:15:59.507Z,1.27
2017-12-04T08:18:27.228Z,1.50
2017-12-04T08:20:54.858Z,1.53
2017-12-04T08:23:22.595Z,1.43
2017-12-04T08:25:50.260Z,1.47
2017-12-04T08:28:17.911Z,1.30
2017-12-04T08:30:45.540Z,1.30
2017-12-04T08:33:13.223Z,1.90
2017-12-04T08:35:40.874Z,1.60
2017-12-04T08:38:08.537Z,1.50
2017-12-04T08:40:36.159Z,1.10
2017-12-04T08:43:03.864Z,0.80
2017-12-04T08:45:31.481Z,1.37
2017-12-04T08:47:59.245Z,1.47
2017-12-04T08:50:26.862Z,0.70
2017-12-04T08:52:54.595Z,0.90
2017-12-04T08:55:22.272Z,1.00
2017-12-04T08:57:49.949Z,1.53
2017-12-04T09:00:17.667Z,1.57
2017-12-04T09:02:45.397Z,1.13
2017-12-04T09:05:13.097Z,1.10
2017-12-04T09:07:40.842Z,1.67
2017-12-04T09:10:08.601Z,1.37
2017-12-04T09:12:36.370Z,1.00
2017-12-04T09:15:04.075Z,1.13
2017-12-04T09:17:31.778Z,1.20
2017-12-04T09:19:59.459Z,1.10
2017-12-04T09:22:27.212Z,1.70
2017-12-04T09:24:54.929Z,0.87
2017-12-04T09:27:22.665Z,1.43
2017-12-04T09:29:50.362Z,1.10
2017-12-04T09:32:18.160Z,1.03
2017-12-04T09:34:45.845Z,1.10
2017-12-04T09:37:13.532Z,1.40
2017-12-04T09:39:41.170Z,1.30
2017-12-04T09:42:08.835Z,1.47
2017-12-04T09:44:36.473Z,1.30
2017-12-04T09:47:04.143Z,0.83
2017-12-04T09:49:31.835Z,0.90
2017-12-04T09:51:59.571Z,0.90
2017-12-04T09:54:27.276Z,1.03
2017-12-04T09:56:54.944Z,1.03
2017-12-04T09:59:22.571Z,1.37
2017-12-04T10:01:50.265Z,0.73
2017-12-04T10:04:17.969Z,0.80
2017-12-04T10:06:45.680Z,1.43
2017-12-04T10:09:13.420Z,0.70
2017-12-04T10:11:41.133Z,1.27
2017-12-04T10:14:08.871Z,1.03
2017-12-04T10:16:36.581Z,0.90
2017-12-04T10:19:04.277Z,0.80
2017-12-04T10:21:31.929Z,0.73
2017-12-04T10:23:59.661Z,1.50
2017-12-04T10:26:27.349Z,1.33
2017-12-04T10:28:55.034Z,0.80
2017-12-04T10:31:22.662Z,0.93
2017-12-04T10:33:50.333Z,1.00
2017-12-04T10:36:18.036Z,1.00
2017-12-04T10:38:45.819Z,0.90
2017-12-04T10:41:13.503Z,0.93
2017-12-04T10:43:41.239Z,1.13
2017-12-04T10:46:09.011Z,1.17
2017-12-04T10:48:37.745Z,1.40
2017-12-04T10:51:05.457Z,1.23
2017-12-04T10:53:33.144Z,1.50
2017-12-04T10:56:00.853Z,1.27
2017-12-04T10:58:28.619Z,0.60
2017-12-04T11:00:56.291Z,0.80
2017-12-04T11:03:24.076Z,0.77
2017-12-04T11:05:51.779Z,1.00
2017-12-04T11:08:19.521Z,1.03
2017-12-04T11:10:47.148Z,0.90
2017-12-04T11:13:15.004Z,0.70
2017-12-04T11:15:42.635Z,1.03
2017-12-04T11:18:10.372Z,0.70
2017-12-04T11:20:37.998Z,0.60
2017-12-04T11:23:05.674Z,1.30
2017-12-04T11:25:33.396Z,1.30
2017-12-04T11:28:01.133Z,0.80
2017-12-04T11:30:28.841Z,0.90
2017-12-04T11:32:56.620Z,1.90
2017-12-04T11:35:24.246Z,0.67
2017-12-04T11:37:51.919Z,0.77
2017-12-04T11:40:19.648Z,0.77
2017-12-04T11:42:47.384Z,1.00
2017-12-04T11:45:15.086Z,0.73
2017-12-04T11:47:42.840Z,1.00
2017-12-04T11:50:10.544Z,0.90
2017-12-04T11:52:38.257Z,1.20
2017-12-04T11:55:06.001Z,0.70
2017-12-04T11:57:33.721Z,0.80
2017-12-04T12:00:01.488Z,1.20
2017-12-04T12:02:33.408Z,1.00
2017-12-04T12:05:02.394Z,1.13
2017-12-04T12:07:30.056Z,1.10
2017-12-04T12:09:57.815Z,1.00
2017-12-04T12:12:25.473Z,0.53
2017-12-04T12:14:53.213Z,0.90
2017-12-04T12:17:20.926Z,0.60
2017-12-04T12:19:48.687Z,1.10
2017-12-04T12:22:16.384Z,1.20
2017-12-04T12:24:44.059Z,1.00
2017-12-04T12:27:11.750Z,1.60
2017-12-04T12:29:39.556Z,0.63
2017-12-04T12:32:07.287Z,0.60
2017-12-04T12:34:35.050Z,1.00
2017-12-04T12:37:02.728Z,0.80
2017-12-04T12:39:30.461Z,1.00
2017-12-04T12:41:58.107Z,0.70
2017-12-04T12:44:25.843Z,0.90
2017-12-04T12:46:53.535Z,0.90
2017-12-04T12:49:21.275Z,1.10
2017-12-04T12:51:48.973Z,1.10
2017-12-04T12:54:19.731Z,0.83
2017-12-04T12:56:47.411Z,1.03
2017-12-04T12:59:16.291Z,1.00
2017-12-04T13:01:44.034Z,0.77
2017-12-04T13:04:11.730Z,1.73
2017-12-04T13:06:39.365Z,0.90
2017-12-04T13:09:07.027Z,0.90
2017-12-04T13:11:34.635Z,0.70
2017-12-04T13:14:02.309Z,0.87
2017-12-04T13:16:30.102Z,1.20
2017-12-04T13:18:57.857Z,0.60
2017-12-04T13:21:25.478Z,1.00
2017-12-04T13:23:53.185Z,1.10
2017-12-04T13:26:20.829Z,0.80
2017-12-04T13:28:48.579Z,1.00
2017-12-04T13:31:16.343Z,1.10
2017-12-04T13:33:55.651Z,0.90
2017-12-04T13:36:35.013Z,0.70
2017-12-04T13:39:02.695Z,1.07
2017-12-04T13:41:30.400Z,0.60
2017-12-04T13:43:58.115Z,0.70
2017-12-04T13:46:25.816Z,0.90
2017-12-04T13:48:53.603Z,1.10
2017-12-04T13:51:21.318Z,1.00
2017-12-04T13:53:49.023Z,1.00
2017-12-04T13:56:16.780Z,1.17
2017-12-04T13:58:44.404Z,1.20
2017-12-04T14:01:12.178Z,1.23
2017-12-04T14:03:39.835Z,0.73
2017-12-04T14:06:07.524Z,1.20
2017-12-04T14:08:35.183Z,1.10
2017-12-04T14:11:02.855Z,0.87
2017-12-04T14:13:30.467Z,0.70
2017-12-04T14:15:58.211Z,1.83
2017-12-04T14:18:25.909Z,0.80
2017-12-04T14:20:53.596Z,0.70
2017-12-04T14:23:21.222Z,1.00
2017-12-04T14:25:48.986Z,0.80
2017-12-04T14:28:16.684Z,0.90
2017-12-04T14:30:44.646Z,1.20
2017-12-04T14:33:12.348Z,0.90
2017-12-04T14:35:40.076Z,1.03
2017-12-04T14:38:07.700Z,1.53
2017-12-04T14:40:35.443Z,1.30
2017-12-04T14:43:03.213Z,1.20
2017-12-04T14:45:30.985Z,1.07
2017-12-04T14:47:58.693Z,0.90
2017-12-04T14:50:26.433Z,1.10
2017-12-04T14:52:54.089Z,0.70
2017-12-04T14:55:21.836Z,1.03
2017-12-04T14:57:49.558Z,1.17
2017-12-04T15:00:17.351Z,1.30
2017-12-04T15:02:45.064Z,1.00
2017-12-04T15:05:12.831Z,1.37
2017-12-04T15:07:40.580Z,1.73
2017-12-04T15:10:08.268Z,2.20
2017-12-04T15:12:36.001Z,1.20
2017-12-04T15:15:03.777Z,1.47
2017-12-04T15:17:31.518Z,1.30
2017-12-04T15:19:59.272Z,1.10
2017-12-04T15:22:26.999Z,2.80
2017-12-04T15:24:54.781Z,2.70
2017-12-04T15:27:22.504Z,0.97
2017-12-04T15:29:50.229Z,1.20
2017-12-04T15:32:18.020Z,1.03
2017-12-04T15:34:45.753Z,1.93
2017-12-04T15:37:13.453Z,2.43
2017-12-04T15:39:41.212Z,1.97
2017-12-04T15:42:08.942Z,1.27
2017-12-04T15:44:36.586Z,1.20
2017-12-04T15:47:04.372Z,1.10
2017-12-04T15:49:32.086Z,1.40
2017-12-04T15:51:59.753Z,1.30
2017-12-04T15:54:27.504Z,1.27
2017-12-04T15:56:55.236Z,1.60
2017-12-04T15:59:22.952Z,1.20
2017-12-04T16:01:50.713Z,1.43
2017-12-04T16:04:18.353Z,1.20
2017-12-04T16:06:46.086Z,1.40
2017-12-04T16:09:13.784Z,1.20
2017-12-04T16:11:41.500Z,1.80
2017-12-04T16:14:09.186Z,1.40
2017-12-04T16:16:36.952Z,1.40
2017-12-04T16:19:04.642Z,1.50
2017-12-04T16:21:32.445Z,1.87
2017-12-04T16:24:00.117Z,1.87
2017-12-04T16:26:27.942Z,2.17
2017-12-04T16:28:55.645Z,2.40
2017-12-04T16:31:23.545Z,1.90
2017-12-04T16:33:51.426Z,2.17
2017-12-04T16:36:19.230Z,2.20
2017-12-04T16:38:47.177Z,1.83
2017-12-04T16:41:15.032Z,5.03
2017-12-04T16:43:42.709Z,2.87
2017-12-04T16:46:10.470Z,5.23
2017-12-04T16:48:38.245Z,3.90
2017-12-04T16:51:06.036Z,3.10
2017-12-04T16:53:33.726Z,3.03
2017-12-04T16:56:01.480Z,3.43
2017-12-04T16:58:29.123Z,2.60
2017-12-04T17:00:56.832Z,2.60
2017-12-04T17:03:24.474Z,2.10
2017-12-04T17:05:52.180Z,1.90
2017-12-04T17:08:19.834Z,2.20
2017-12-04T17:10:47.507Z,1.87
2017-12-04T17:13:15.147Z,2.37
2017-12-04T17:15:43.060Z,2.30
2017-12-04T17:18:10.683Z,2.60
2017-12-04T17:20:39.601Z,3.00
2017-12-04T17:23:07.248Z,2.50
2017-12-04T17:25:34.991Z,1.83
2017-12-04T17:28:02.627Z,1.40
2017-12-04T17:30:30.338Z,1.90
2017-12-04T17:32:58.003Z,2.23
2017-12-04T17:35:25.709Z,1.60
2017-12-04T17:37:53.381Z,2.50
2017-12-04T17:40:21.027Z,3.50
2017-12-04T17:42:48.690Z,1.87
2017-12-04T17:45:16.400Z,2.00
2017-12-04T17:47:44.156Z,2.20
2017-12-04T17:50:11.850Z,1.87
2017-12-04T17:52:39.577Z,2.10
2017-12-04T17:55:07.240Z,2.20
2017-12-04T17:57:34.919Z,2.00
2017-12-04T18:00:02.545Z,1.80
2017-12-04T18:02:30.303Z,1.87
2017-12-04T18:04:57.955Z,2.23
2017-12-04T18:07:25.648Z,1.77
2017-12-04T18:09:54.728Z,1.90
2017-12-04T18:12:22.570Z,2.10
2017-12-04T18:14:50.208Z,1.67
2017-12-04T18:17:17.971Z,2.20
2017-12-04T18:19:45.656Z,1.90
2017-12-04T18:22:13.455Z,2.00
2017-12-04T18:24:41.217Z,1.83
2017-12-04T18:27:08.957Z,1.80
2017-12-04T18:29:36.703Z,2.20
2017-12-04T18:32:04.477Z,1.63
2017-12-04T18:34:32.124Z,1.63
2017-12-04T18:36:59.891Z,1.77
2017-12-04T18:39:27.619Z,1.90
2017-12-04T18:41:55.472Z,1.83
2017-12-04T18:44:23.245Z,1.70
2017-12-04T18:46:51.059Z,1.67
2017-12-04T18:49:18.729Z,2.10
2017-12-04T18:51:46.531Z,2.10
2017-12-04T18:54:14.240Z,3.20
2017-12-04T18:56:42.043Z,2.60
2017-12-04T18:59:09.753Z,1.70
2017-12-04T19:01:37.526Z,2.03
2017-12-04T19:04:05.167Z,2.90
2017-12-04T19:06:32.925Z,1.93
2017-12-04T19:09:00.704Z,2.33
2017-12-04T19:11:28.404Z,2.00
2017-12-04T19:13:56.062Z,1.80
2017-12-04T19:16:23.774Z,1.77
2017-12-04T19:18:51.477Z,1.60
2017-12-04T19:21:19.184Z,1.57
2017-12-04T19:23:47.916Z,2.10
2017-12-04T19:26:15.924Z,1.87
2017-12-04T19:28:43.648Z,1.30
2017-12-04T19:31:11.311Z,1.60
2017-12-04T19:33:39.108Z,1.20
2017-12-04T19:36:06.804Z,1.60
2017-12-04T19:38:34.582Z,1.77
2017-12-04T19:41:02.293Z,1.50
2017-12-04T19:43:30.067Z,2.33
2017-12-04T19:45:57.771Z,1.70
2017-12-04T19:48:25.523Z,1.30
2017-12-04T19:50:53.246Z,1.60
2017-12-04T19:53:20.981Z,1.53
2017-12-04T19:55:48.698Z,1.83
2017-12-04T19:58:16.405Z,2.00
2017-12-04T20:00:44.169Z,2.27
2017-12-04T20:03:11.931Z,1.70
2017-12-04T20:05:39.572Z,2.50
2017-12-04T20:08:07.332Z,2.40
2017-12-04T20:10:34.980Z,2.30
2017-12-04T20:13:02.676Z,2.20
2017-12-04T20:15:30.356Z,1.90
2017-12-04T20:17:58.041Z,2.50
2017-12-04T20:20:25.792Z,2.10
2017-12-04T20:22:53.472Z,2.50
2017-12-04T20:25:21.173Z,2.50
2017-12-04T20:27:48.859Z,2.13
2017-12-04T20:30:16.557Z,2.43
2017-12-04T20:32:44.397Z,2.50
2017-12-04T20:35:12.130Z,2.20
2017-12-04T20:37:39.936Z,2.70
2017-12-04T20:40:07.647Z,2.30
2017-12-04T20:42:35.425Z,2.00
2017-12-04T20:45:03.193Z,2.07
2017-12-04T20:47:30.949Z,2.70
2017-12-04T20:49:58.663Z,2.60
2017-12-04T20:52:26.439Z,2.90
2017-12-04T20:54:54.132Z,2.33
2017-12-04T20:57:21.917Z,2.50
2017-12-04T20:59:49.637Z,2.73
2017-12-04T21:02:17.328Z,3.40
2017-12-04T21:04:45.021Z,2.97
2017-12-04T21:07:12.857Z,3.70
2017-12-04T21:09:52.145Z,3.00
2017-12-04T21:12:19.854Z,3.30
2017-12-04T21:14:59.168Z,3.20
2017-12-04T21:17:33.575Z,2.70
2017-12-04T21:20:01.339Z,2.70
2017-12-04T21:22:29.094Z,2.80
2017-12-04T21:24:56.816Z,3.70
2017-12-04T21:27:24.658Z,3.40
2017-12-04T21:29:52.431Z,2.60
2017-12-04T21:32:20.121Z,3.33
2017-12-04T21:34:47.849Z,2.57
2017-12-04T21:37:15.537Z,3.23
2017-12-04T21:39:43.264Z,2.50
2017-12-04T21:42:10.952Z,2.50
2017-12-04T21:44:38.686Z,3.00
2017-12-04T21:47:06.390Z,2.70
2017-12-04T21:49:34.080Z,3.30
2017-12-04T21:52:01.812Z,2.43
2017-12-04T21:54:29.590Z,2.77
2017-12-04T21:56:57.234Z,2.77
2017-12-04T21:59:24.997Z,3.40
2017-12-04T22:01:52.619Z,2.80
2017-12-04T22:04:20.383Z,2.33
2017-12-04T22:06:48.093Z,2.67
2017-12-04T22:09:15.856Z,2.97
2017-12-04T22:11:43.553Z,3.20
2017-12-04T22:14:11.224Z,2.73
2017-12-04T22:16:38.849Z,2.93
2017-12-04T22:19:06.610Z,3.73
2017-12-04T22:21:34.328Z,3.63
2017-12-04T22:24:01.999Z,4.30
2017-12-04T22:26:29.653Z,3.87
2017-12-04T22:28:57.403Z,4.57
2017-12-04T22:31:25.212Z,4.37
2017-12-04T22:33:53.040Z,4.70
2017-12-04T22:36:20.742Z,5.30
2017-12-04T22:38:48.517Z,4.40
2017-12-04T22:41:16.262Z,4.90
2017-12-04T22:43:44.020Z,5.60
2017-12-04T22:46:11.721Z,6.13
2017-12-04T22:48:39.468Z,5.30
2017-12-04T22:51:07.177Z,6.37
2017-12-04T22:53:34.930Z,5.47
2017-12-04T22:56:02.652Z,5.80
2017-12-04T22:58:30.335Z,6.63
2017-12-04T23:00:58.068Z,6.77
2017-12-04T23:03:25.839Z,7.20
2017-12-04T23:05:53.544Z,6.90
2017-12-04T23:08:21.241Z,6.73
2017-12-04T23:10:48.904Z,6.80
2017-12-04T23:13:16.664Z,7.77
2017-12-04T23:15:44.403Z,7.67
2017-12-04T23:18:12.196Z,6.90
2017-12-04T23:20:39.929Z,7.13
2017-12-04T23:23:07.623Z,9.43
2017-12-04T23:25:35.388Z,7.80
2017-12-04T23:28:03.077Z,7.83
2017-12-04T23:30:30.845Z,9.83
2017-12-04T23:32:58.616Z,9.50
2017-12-04T23:35:26.300Z,9.20
2017-12-04T23:37:54.006Z,9.00
2017-12-04T23:40:21.704Z,8.20
2017-12-04T23:42:49.397Z,7.97
2017-12-04T23:45:17.146Z,8.37
2017-12-04T23:47:44.908Z,7.57
2017-12-04T23:50:12.662Z,6.80
2017-12-04T23:52:40.367Z,7.33
2017-12-04T23:55:08.127Z,7.90
2017-12-04T23:57:35.852Z,7.30
